<?xml version="1.0" encoding="UTF-8" ?>
<gpx version="1.1" xmlns:xsi="http://www.w3.org/2001/XMLSchema-instance" 
    xmlns="http://www.topografix.com/GPX/1/1" 
    xsi:schemaLocation="http://www.topografix.com/GPX/1/1 http://www.topografix.com/GPX/1/1/gpx.xsd" 
    creator="Openrunner - https://www.openrunner.com" >	<trk>
						<name>11266618-Balade Verte - Circuit du coucou - VI2</name>
						<trkseg>
					<trkpt lat="46.665280" lon="5.215440">
						<ele>196</ele>
						<time>2022-11-04T14:50:33Z</time>
					</trkpt>
					<trkpt lat="46.665310" lon="5.215620">
						<ele>196</ele>
						<time>2022-11-04T14:50:50Z</time>
					</trkpt>
					<trkpt lat="46.665310" lon="5.215780">
						<ele>196</ele>
						<time>2022-11-04T14:51:05Z</time>
					</trkpt>
					<trkpt lat="46.665290" lon="5.215920">
						<ele>196</ele>
						<time>2022-11-04T14:51:18Z</time>
					</trkpt>
					<trkpt lat="46.665570" lon="5.215940">
						<ele>195</ele>
						<time>2022-11-04T14:51:55Z</time>
					</trkpt>
					<trkpt lat="46.665920" lon="5.215930">
						<ele>195</ele>
						<time>2022-11-04T14:52:42Z</time>
					</trkpt>
					<trkpt lat="46.666000" lon="5.215900">
						<ele>195</ele>
						<time>2022-11-04T14:52:53Z</time>
					</trkpt>
					<trkpt lat="46.666050" lon="5.215850">
						<ele>194</ele>
						<time>2022-11-04T14:53:01Z</time>
					</trkpt>
					<trkpt lat="46.666100" lon="5.215760">
						<ele>194</ele>
						<time>2022-11-04T14:53:12Z</time>
					</trkpt>
					<trkpt lat="46.666160" lon="5.215650">
						<ele>194</ele>
						<time>2022-11-04T14:53:24Z</time>
					</trkpt>
					<trkpt lat="46.666280" lon="5.215330">
						<ele>194</ele>
						<time>2022-11-04T14:53:58Z</time>
					</trkpt>
					<trkpt lat="46.666380" lon="5.215150">
						<ele>193</ele>
						<time>2022-11-04T14:54:19Z</time>
					</trkpt>
					<trkpt lat="46.666590" lon="5.214830">
						<ele>191</ele>
						<time>2022-11-04T14:55:00Z</time>
					</trkpt>
					<trkpt lat="46.666750" lon="5.214490">
						<ele>189</ele>
						<time>2022-11-04T14:55:37Z</time>
					</trkpt>
					<trkpt lat="46.666870" lon="5.214240">
						<ele>188</ele>
						<time>2022-11-04T14:56:05Z</time>
					</trkpt>
					<trkpt lat="46.666950" lon="5.214040">
						<ele>187</ele>
						<time>2022-11-04T14:56:26Z</time>
					</trkpt>
					<trkpt lat="46.667050" lon="5.213690">
						<ele>185</ele>
						<time>2022-11-04T14:57:01Z</time>
					</trkpt>
					<trkpt lat="46.667160" lon="5.213380">
						<ele>184</ele>
						<time>2022-11-04T14:57:33Z</time>
					</trkpt>
					<trkpt lat="46.667190" lon="5.213240">
						<ele>184</ele>
						<time>2022-11-04T14:57:47Z</time>
					</trkpt>
					<trkpt lat="46.667230" lon="5.213040">
						<ele>184</ele>
						<time>2022-11-04T14:58:06Z</time>
					</trkpt>
					<trkpt lat="46.667250" lon="5.212400">
						<ele>184</ele>
						<time>2022-11-04T14:59:04Z</time>
					</trkpt>
					<trkpt lat="46.667270" lon="5.211920">
						<ele>185</ele>
						<time>2022-11-04T14:59:48Z</time>
					</trkpt>
					<trkpt lat="46.667240" lon="5.211560">
						<ele>185</ele>
						<time>2022-11-04T15:00:22Z</time>
					</trkpt>
					<trkpt lat="46.667270" lon="5.211390">
						<ele>185</ele>
						<time>2022-11-04T15:00:38Z</time>
					</trkpt>
					<trkpt lat="46.667380" lon="5.210790">
						<ele>184</ele>
						<time>2022-11-04T15:01:35Z</time>
					</trkpt>
					<trkpt lat="46.667440" lon="5.210120">
						<ele>184</ele>
						<time>2022-11-04T15:02:36Z</time>
					</trkpt>
					<trkpt lat="46.667480" lon="5.209960">
						<ele>183</ele>
						<time>2022-11-04T15:02:52Z</time>
					</trkpt>
					<trkpt lat="46.667540" lon="5.209760">
						<ele>184</ele>
						<time>2022-11-04T15:03:12Z</time>
					</trkpt>
					<trkpt lat="46.667670" lon="5.209570">
						<ele>184</ele>
						<time>2022-11-04T15:03:37Z</time>
					</trkpt>
					<trkpt lat="46.667750" lon="5.209490">
						<ele>184</ele>
						<time>2022-11-04T15:03:49Z</time>
					</trkpt>
					<trkpt lat="46.667860" lon="5.209450">
						<ele>184</ele>
						<time>2022-11-04T15:04:05Z</time>
					</trkpt>
					<trkpt lat="46.668070" lon="5.209470">
						<ele>184</ele>
						<time>2022-11-04T15:04:33Z</time>
					</trkpt>
					<trkpt lat="46.668180" lon="5.209460">
						<ele>185</ele>
						<time>2022-11-04T15:04:47Z</time>
					</trkpt>
					<trkpt lat="46.668260" lon="5.209440">
						<ele>185</ele>
						<time>2022-11-04T15:04:58Z</time>
					</trkpt>
					<trkpt lat="46.668350" lon="5.209380">
						<ele>185</ele>
						<time>2022-11-04T15:05:11Z</time>
					</trkpt>
					<trkpt lat="46.668550" lon="5.209190">
						<ele>186</ele>
						<time>2022-11-04T15:05:43Z</time>
					</trkpt>
					<trkpt lat="46.668720" lon="5.209050">
						<ele>187</ele>
						<time>2022-11-04T15:06:09Z</time>
					</trkpt>
					<trkpt lat="46.668880" lon="5.208870">
						<ele>189</ele>
						<time>2022-11-04T15:06:36Z</time>
					</trkpt>
					<trkpt lat="46.668980" lon="5.208760">
						<ele>189</ele>
						<time>2022-11-04T15:06:53Z</time>
					</trkpt>
					<trkpt lat="46.669050" lon="5.208630">
						<ele>190</ele>
						<time>2022-11-04T15:07:08Z</time>
					</trkpt>
					<trkpt lat="46.669080" lon="5.208520">
						<ele>191</ele>
						<time>2022-11-04T15:07:19Z</time>
					</trkpt>
					<trkpt lat="46.669180" lon="5.208220">
						<ele>193</ele>
						<time>2022-11-04T15:07:50Z</time>
					</trkpt>
					<trkpt lat="46.669250" lon="5.208070">
						<ele>193</ele>
						<time>2022-11-04T15:08:06Z</time>
					</trkpt>
					<trkpt lat="46.669340" lon="5.207930">
						<ele>194</ele>
						<time>2022-11-04T15:08:24Z</time>
					</trkpt>
					<trkpt lat="46.669600" lon="5.207430">
						<ele>195</ele>
						<time>2022-11-04T15:09:21Z</time>
					</trkpt>
					<trkpt lat="46.669700" lon="5.207140">
						<ele>195</ele>
						<time>2022-11-04T15:09:51Z</time>
					</trkpt>
					<trkpt lat="46.669980" lon="5.205780">
						<ele>195</ele>
						<time>2022-11-04T15:12:01Z</time>
					</trkpt>
					<trkpt lat="46.670020" lon="5.205540">
						<ele>195</ele>
						<time>2022-11-04T15:12:24Z</time>
					</trkpt>
					<trkpt lat="46.670060" lon="5.205290">
						<ele>195</ele>
						<time>2022-11-04T15:12:47Z</time>
					</trkpt>
					<trkpt lat="46.670040" lon="5.204980">
						<ele>196</ele>
						<time>2022-11-04T15:13:16Z</time>
					</trkpt>
					<trkpt lat="46.670000" lon="5.204670">
						<ele>196</ele>
						<time>2022-11-04T15:13:44Z</time>
					</trkpt>
					<trkpt lat="46.670040" lon="5.204460">
						<ele>196</ele>
						<time>2022-11-04T15:14:04Z</time>
					</trkpt>
					<trkpt lat="46.670090" lon="5.204340">
						<ele>196</ele>
						<time>2022-11-04T15:14:17Z</time>
					</trkpt>
					<trkpt lat="46.670210" lon="5.204190">
						<ele>195</ele>
						<time>2022-11-04T15:14:38Z</time>
					</trkpt>
					<trkpt lat="46.670370" lon="5.203820">
						<ele>193</ele>
						<time>2022-11-04T15:15:18Z</time>
					</trkpt>
					<trkpt lat="46.670500" lon="5.203650">
						<ele>192</ele>
						<time>2022-11-04T15:15:42Z</time>
					</trkpt>
					<trkpt lat="46.670610" lon="5.203540">
						<ele>191</ele>
						<time>2022-11-04T15:16:00Z</time>
					</trkpt>
					<trkpt lat="46.670710" lon="5.203400">
						<ele>190</ele>
						<time>2022-11-04T15:16:18Z</time>
					</trkpt>
					<trkpt lat="46.670730" lon="5.203280">
						<ele>190</ele>
						<time>2022-11-04T15:16:29Z</time>
					</trkpt>
					<trkpt lat="46.670720" lon="5.203180">
						<ele>189</ele>
						<time>2022-11-04T15:16:39Z</time>
					</trkpt>
					<trkpt lat="46.670660" lon="5.203030">
						<ele>188</ele>
						<time>2022-11-04T15:16:54Z</time>
					</trkpt>
					<trkpt lat="46.670610" lon="5.202890">
						<ele>188</ele>
						<time>2022-11-04T15:17:09Z</time>
					</trkpt>
					<trkpt lat="46.670540" lon="5.202810">
						<ele>187</ele>
						<time>2022-11-04T15:17:21Z</time>
					</trkpt>
					<trkpt lat="46.670320" lon="5.202710">
						<ele>187</ele>
						<time>2022-11-04T15:17:52Z</time>
					</trkpt>
					<trkpt lat="46.670000" lon="5.202520">
						<ele>186</ele>
						<time>2022-11-04T15:18:38Z</time>
					</trkpt>
					<trkpt lat="46.669540" lon="5.202870">
						<ele>190</ele>
						<time>2022-11-04T15:19:47Z</time>
					</trkpt>
					<trkpt lat="46.669440" lon="5.202960">
						<ele>191</ele>
						<time>2022-11-04T15:20:03Z</time>
					</trkpt>
					<trkpt lat="46.669300" lon="5.203120">
						<ele>193</ele>
						<time>2022-11-04T15:20:26Z</time>
					</trkpt>
					<trkpt lat="46.669230" lon="5.203150">
						<ele>193</ele>
						<time>2022-11-04T15:20:36Z</time>
					</trkpt>
					<trkpt lat="46.669080" lon="5.203250">
						<ele>194</ele>
						<time>2022-11-04T15:20:58Z</time>
					</trkpt>
					<trkpt lat="46.668840" lon="5.203370">
						<ele>194</ele>
						<time>2022-11-04T15:21:32Z</time>
					</trkpt>
					<trkpt lat="46.668600" lon="5.203490">
						<ele>194</ele>
						<time>2022-11-04T15:22:06Z</time>
					</trkpt>
					<trkpt lat="46.668350" lon="5.203590">
						<ele>194</ele>
						<time>2022-11-04T15:22:40Z</time>
					</trkpt>
					<trkpt lat="46.668060" lon="5.203690">
						<ele>193</ele>
						<time>2022-11-04T15:23:20Z</time>
					</trkpt>
					<trkpt lat="46.667500" lon="5.203770">
						<ele>192</ele>
						<time>2022-11-04T15:24:35Z</time>
					</trkpt>
					<trkpt lat="46.667410" lon="5.203760">
						<ele>192</ele>
						<time>2022-11-04T15:24:47Z</time>
					</trkpt>
					<trkpt lat="46.667310" lon="5.203760">
						<ele>193</ele>
						<time>2022-11-04T15:25:01Z</time>
					</trkpt>
					<trkpt lat="46.667270" lon="5.204010">
						<ele>194</ele>
						<time>2022-11-04T15:25:24Z</time>
					</trkpt>
					<trkpt lat="46.667230" lon="5.204130">
						<ele>195</ele>
						<time>2022-11-04T15:25:36Z</time>
					</trkpt>
					<trkpt lat="46.667020" lon="5.204310">
						<ele>197</ele>
						<time>2022-11-04T15:26:09Z</time>
					</trkpt>
					<trkpt lat="46.666510" lon="5.204530">
						<ele>201</ele>
						<time>2022-11-04T15:27:20Z</time>
					</trkpt>
					<trkpt lat="46.666230" lon="5.204650">
						<ele>202</ele>
						<time>2022-11-04T15:27:59Z</time>
					</trkpt>
					<trkpt lat="46.665870" lon="5.204760">
						<ele>202</ele>
						<time>2022-11-04T15:28:48Z</time>
					</trkpt>
					<trkpt lat="46.665560" lon="5.204800">
						<ele>201</ele>
						<time>2022-11-04T15:29:29Z</time>
					</trkpt>
					<trkpt lat="46.665350" lon="5.204760">
						<ele>200</ele>
						<time>2022-11-04T15:29:58Z</time>
					</trkpt>
					<trkpt lat="46.665290" lon="5.204680">
						<ele>200</ele>
						<time>2022-11-04T15:30:09Z</time>
					</trkpt>
					<trkpt lat="46.665220" lon="5.204620">
						<ele>200</ele>
						<time>2022-11-04T15:30:19Z</time>
					</trkpt>
					<trkpt lat="46.664820" lon="5.204490">
						<ele>199</ele>
						<time>2022-11-04T15:31:14Z</time>
					</trkpt>
					<trkpt lat="46.664560" lon="5.204430">
						<ele>200</ele>
						<time>2022-11-04T15:31:49Z</time>
					</trkpt>
					<trkpt lat="46.664640" lon="5.205050">
						<ele>199</ele>
						<time>2022-11-04T15:32:47Z</time>
					</trkpt>
					<trkpt lat="46.664680" lon="5.205580">
						<ele>199</ele>
						<time>2022-11-04T15:33:36Z</time>
					</trkpt>
					<trkpt lat="46.664700" lon="5.206150">
						<ele>199</ele>
						<time>2022-11-04T15:34:28Z</time>
					</trkpt>
					<trkpt lat="46.664670" lon="5.206220">
						<ele>199</ele>
						<time>2022-11-04T15:34:36Z</time>
					</trkpt>
					<trkpt lat="46.664630" lon="5.206270">
						<ele>199</ele>
						<time>2022-11-04T15:34:43Z</time>
					</trkpt>
					<trkpt lat="46.664460" lon="5.206400">
						<ele>199</ele>
						<time>2022-11-04T15:35:08Z</time>
					</trkpt>
					<trkpt lat="46.664340" lon="5.206490">
						<ele>199</ele>
						<time>2022-11-04T15:35:26Z</time>
					</trkpt>
					<trkpt lat="46.664050" lon="5.206650">
						<ele>199</ele>
						<time>2022-11-04T15:36:08Z</time>
					</trkpt>
					<trkpt lat="46.663820" lon="5.206760">
						<ele>198</ele>
						<time>2022-11-04T15:36:40Z</time>
					</trkpt>
					<trkpt lat="46.663490" lon="5.206870">
						<ele>196</ele>
						<time>2022-11-04T15:37:25Z</time>
					</trkpt>
					<trkpt lat="46.662930" lon="5.207200">
						<ele>195</ele>
						<time>2022-11-04T15:38:46Z</time>
					</trkpt>
					<trkpt lat="46.662790" lon="5.207270">
						<ele>194</ele>
						<time>2022-11-04T15:39:06Z</time>
					</trkpt>
					<trkpt lat="46.662690" lon="5.207380">
						<ele>194</ele>
						<time>2022-11-04T15:39:22Z</time>
					</trkpt>
					<trkpt lat="46.662620" lon="5.207630">
						<ele>194</ele>
						<time>2022-11-04T15:39:47Z</time>
					</trkpt>
					<trkpt lat="46.662580" lon="5.207830">
						<ele>194</ele>
						<time>2022-11-04T15:40:06Z</time>
					</trkpt>
					<trkpt lat="46.662580" lon="5.208050">
						<ele>195</ele>
						<time>2022-11-04T15:40:26Z</time>
					</trkpt>
					<trkpt lat="46.662620" lon="5.208290">
						<ele>195</ele>
						<time>2022-11-04T15:40:49Z</time>
					</trkpt>
					<trkpt lat="46.662670" lon="5.208510">
						<ele>195</ele>
						<time>2022-11-04T15:41:10Z</time>
					</trkpt>
					<trkpt lat="46.662770" lon="5.208790">
						<ele>195</ele>
						<time>2022-11-04T15:41:39Z</time>
					</trkpt>
					<trkpt lat="46.662840" lon="5.208980">
						<ele>194</ele>
						<time>2022-11-04T15:41:59Z</time>
					</trkpt>
					<trkpt lat="46.662890" lon="5.209150">
						<ele>194</ele>
						<time>2022-11-04T15:42:16Z</time>
					</trkpt>
					<trkpt lat="46.662890" lon="5.209390">
						<ele>195</ele>
						<time>2022-11-04T15:42:38Z</time>
					</trkpt>
					<trkpt lat="46.662850" lon="5.209640">
						<ele>195</ele>
						<time>2022-11-04T15:43:01Z</time>
					</trkpt>
					<trkpt lat="46.662760" lon="5.209920">
						<ele>196</ele>
						<time>2022-11-04T15:43:29Z</time>
					</trkpt>
					<trkpt lat="46.662720" lon="5.210080">
						<ele>197</ele>
						<time>2022-11-04T15:43:45Z</time>
					</trkpt>
					<trkpt lat="46.662700" lon="5.210380">
						<ele>197</ele>
						<time>2022-11-04T15:44:13Z</time>
					</trkpt>
					<trkpt lat="46.662790" lon="5.211520">
						<ele>197</ele>
						<time>2022-11-04T15:45:58Z</time>
					</trkpt>
					<trkpt lat="46.662910" lon="5.212340">
						<ele>198</ele>
						<time>2022-11-04T15:47:15Z</time>
					</trkpt>
					<trkpt lat="46.663000" lon="5.212890">
						<ele>199</ele>
						<time>2022-11-04T15:48:06Z</time>
					</trkpt>
					<trkpt lat="46.663020" lon="5.213020">
						<ele>199</ele>
						<time>2022-11-04T15:48:19Z</time>
					</trkpt>
					<trkpt lat="46.663110" lon="5.213200">
						<ele>199</ele>
						<time>2022-11-04T15:48:39Z</time>
					</trkpt>
					<trkpt lat="46.663170" lon="5.213300">
						<ele>199</ele>
						<time>2022-11-04T15:48:51Z</time>
					</trkpt>
					<trkpt lat="46.663220" lon="5.213410">
						<ele>199</ele>
						<time>2022-11-04T15:49:03Z</time>
					</trkpt>
					<trkpt lat="46.663280" lon="5.213790">
						<ele>199</ele>
						<time>2022-11-04T15:49:39Z</time>
					</trkpt>
					<trkpt lat="46.663300" lon="5.213980">
						<ele>199</ele>
						<time>2022-11-04T15:49:56Z</time>
					</trkpt>
					<trkpt lat="46.663430" lon="5.214060">
						<ele>199</ele>
						<time>2022-11-04T15:50:15Z</time>
					</trkpt>
					<trkpt lat="46.663600" lon="5.214120">
						<ele>199</ele>
						<time>2022-11-04T15:50:39Z</time>
					</trkpt>
					<trkpt lat="46.663880" lon="5.214190">
						<ele>198</ele>
						<time>2022-11-04T15:51:17Z</time>
					</trkpt>
					<trkpt lat="46.664530" lon="5.214340">
						<ele>197</ele>
						<time>2022-11-04T15:52:44Z</time>
					</trkpt>
					<trkpt lat="46.664640" lon="5.214370">
						<ele>196</ele>
						<time>2022-11-04T15:52:59Z</time>
					</trkpt>
					<trkpt lat="46.664790" lon="5.214480">
						<ele>196</ele>
						<time>2022-11-04T15:53:22Z</time>
					</trkpt>
					<trkpt lat="46.664860" lon="5.214620">
						<ele>196</ele>
						<time>2022-11-04T15:53:38Z</time>
					</trkpt>
					<trkpt lat="46.664990" lon="5.214780">
						<ele>196</ele>
						<time>2022-11-04T15:54:00Z</time>
					</trkpt>
					<trkpt lat="46.665070" lon="5.214890">
						<ele>196</ele>
						<time>2022-11-04T15:54:15Z</time>
					</trkpt>
					<trkpt lat="46.665170" lon="5.215140">
						<ele>196</ele>
						<time>2022-11-04T15:54:41Z</time>
					</trkpt>
					<trkpt lat="46.665280" lon="5.215440">
						<ele>196</ele>
						<time>2022-11-04T15:55:13Z</time>
					</trkpt>
					</trkseg>
				</trk>
			</gpx>